x

Isle Of Shoals, Nh (iosn3) Weather Station

7:00 - Wed 26th Nov 2014 All times are EST. -5 hours from GMT.

  • Wind
    17mph
  • Air Temp 45°f
  • Sea Pressure 1020.9mb
  • Isle Of Shoals, Nh
  • Isle Of Shoals, Nh

More Historic Weather Station data

Upgrade to MSW Pro to gain access to the past 30 days of data for over 8000 Wavebouys and Weather Stations around the globe.

Join Pro

Comparision Forecast

View Surf forecast
   
mer. 11/26 7:00 17
mph
1020.9mb 45f
6:00 14 15 mph 1021.2mb 45f
5:00 13 14 mph 1021.5mb 45f
4:00 15 16 mph 1021.5mb 46f
3:00 22 23 mph 1020.6mb 47f
2:00 16
mph
1020mb 48f
1:00 16 17 mph 1019mb 48f
12:00 16 17 mph 1018.2mb 49f
mar. 11/25 11:00 13
mph
1018.3mb 49f
10:00 10 11 mph 1017.3mb 50f
9:00 13 14 mph 1016.3mb 50f
8:00 16 17 mph 1015.4mb 51f
7:00 21 23 mph 1014.3mb 53f
6:00 21 23 mph 1013.5mb 56f
5:00 16
mph
1012.2mb 57f
4:00 22 23 mph 1010.8mb 58f
3:00 18 20 mph 1010.2mb 58f
2:00 20 22 mph 1009.9mb 58f
1:00 18
mph
1009.3mb 58f
12:00 18 20 mph 1009.8mb 59f
11:00 20
mph
1009.4mb 60f
10:00 22
mph
1009.3mb 60f
9:00 21 22 mph 1009.1mb 56f
8:00 25 26 mph 1008.2mb 56f
7:00 24
mph
1007.1mb 56f
6:00 24 25 mph 1006.7mb 55f
5:00 26 28 mph 1005.1mb 55f
4:00 25 26 mph 1005.1mb 55f
3:00 25 26 mph 1004.8mb 54f
2:00 20 21 mph 1004.4mb 62f
1:00 21 22 mph 1003.9mb 62f
12:00 20 21 mph 1003.8mb 59f
lun. 11/24 11:00 23 24 mph 1003.4mb 59f
10:00 24 26 mph 1002.7mb 60f
9:00 24 26 mph 1002.2mb 60f
8:00 25 26 mph 1001.4mb 60f
7:00 26 29 mph 1001.3mb 60f
6:00 30 33 mph 1000.6mb 59f
5:00 31 33 mph 999.9mb 59f
4:00 31 33 mph 1000.3mb 60f
3:00 31 33 mph 1000.6mb 60f
2:00 28 29 mph 1001.6mb 58f
1:00 25 28 mph 1002.4mb 55f
12:00 28 31 mph 1003.6mb 54f
11:00 37 40 mph 1004.4mb 54f
10:00 41 45 mph 1005.5mb 54f
9:00 44 48 mph 1006.8mb 55f
8:00 44 47 mph 1006.4mb 53f
7:00 28 31 mph 1011.5mb 53f
6:00 25 26 mph 1012.3mb 52f
5:00 20 21 mph 1014.1mb 51f
4:00 13 14 mph 1015.7mb 49f
3:00 13 14 mph 1016.9mb 49f
2:00 14 15 mph 1017.4mb 49f
1:00 14 15 mph 1017.8mb 48f
12:00 15 16 mph 1018.6mb 49f
dim. 11/23 11:00 13 14 mph 1018.8mb 50f
10:00 13 14 mph 1019.1mb 50f
9:00 13
mph
1018.9mb 52f
8:00 16
mph
1019.3mb 54f
7:00 20 21 mph 1019.7mb 56f
6:00 17 18 mph 1018.9mb 56f
5:00 13 15 mph 1018.7mb 52f
4:00 9
mph
1018.3mb 55f
3:00 9
mph
1018.3mb 55f
2:00 13 14 mph 1018mb 54f
1:00 9 10 mph 1017.9mb 52f
12:00 14 15 mph 1018.2mb 50f
11:00 14 15 mph 1018.7mb 49f
10:00 21 23 mph 1018.7mb 47f
9:00 23 24 mph 1018mb 46f
8:00 24 25 mph 1017.7mb 46f
7:00 20 21 mph 1017.2mb 46f
6:00 20 21 mph 1016.3mb 45f
5:00 21 23 mph 1015.9mb 45f
4:00 23 25 mph 1016.2mb 44f
3:00 25 29 mph 1015.6mb 44f
2:00 26 30 mph 1015.7mb 43f
1:00 24 26 mph 1015.7mb 43f
12:00 22 24 mph 1015.7mb 42f
sam. 11/22 11:00 24 26 mph 1015.5mb 42f
10:00 30 34 mph 1015.1mb 42f
9:00 33 38 mph 1015.4mb 41f
8:00 32 36 mph 1015.6mb 42f
7:00 31 33 mph 1016.2mb 42f
6:00 28 31 mph 1016.9mb 42f
5:00 29 33 mph 1017.6mb 43f
4:00 25 28 mph 1018.3mb 42f
3:00 21 23 mph 1019.6mb 39f
2:00 23 24 mph 1020.1mb 37f